createdAt,value
2024-01-05T00:02:17.556Z,7.53
2024-01-05T00:04:45.943Z,7.43
2024-01-05T00:07:16.535Z,7.80
2024-01-05T00:09:44.835Z,6.73
2024-01-05T00:12:13.148Z,7.47
2024-01-05T00:14:41.747Z,7.17
2024-01-05T00:17:10.171Z,6.03
2024-01-05T00:19:38.649Z,6.27
2024-01-05T00:22:07.490Z,6.07
2024-01-05T00:24:38.316Z,5.53
2024-01-05T00:27:06.910Z,5.27
2024-01-05T00:29:35.282Z,5.50
2024-01-05T00:32:03.584Z,5.93
2024-01-05T00:34:32.156Z,4.90
2024-01-05T00:37:00.803Z,5.00
2024-01-05T00:39:29.217Z,5.77
2024-01-05T00:41:59.169Z,4.30
2024-01-05T00:44:28.290Z,5.20
2024-01-05T00:46:56.780Z,5.83
2024-01-05T00:49:25.286Z,5.30
2024-01-05T00:51:53.617Z,5.80
2024-01-05T00:54:21.931Z,5.53
2024-01-05T00:56:50.335Z,4.97
2024-01-05T00:59:22.377Z,5.33
2024-01-05T01:01:50.774Z,5.63
2024-01-05T01:04:19.513Z,5.23
2024-01-05T01:06:48.010Z,6.30
2024-01-05T01:09:16.477Z,5.60
2024-01-05T01:11:44.976Z,5.07
2024-01-05T01:14:13.320Z,5.13
2024-01-05T01:16:43.326Z,4.80
2024-01-05T01:19:11.861Z,4.90
2024-01-05T01:21:40.387Z,4.43
2024-01-05T01:24:08.858Z,4.37
2024-01-05T01:26:39.389Z,4.47
2024-01-05T01:29:09.642Z,4.30
2024-01-05T01:31:38.075Z,4.07
2024-01-05T01:34:07.940Z,4.17
2024-01-05T01:36:36.529Z,3.97
2024-01-05T01:39:06.322Z,4.30
2024-01-05T01:41:35.080Z,4.73
2024-01-05T01:44:04.072Z,4.00
2024-01-05T01:46:34.829Z,4.17
2024-01-05T01:49:03.554Z,4.97
2024-01-05T01:51:33.823Z,4.23
2024-01-05T01:54:03.788Z,4.40
2024-01-05T01:56:32.678Z,4.20
2024-01-05T01:59:01.336Z,4.90
2024-01-05T02:01:30.120Z,4.37
2024-01-05T02:03:58.912Z,4.13
2024-01-05T02:06:27.570Z,4.60
2024-01-05T02:09:00.334Z,3.93
2024-01-05T02:11:29.161Z,4.23
2024-01-05T02:13:57.606Z,4.53
2024-01-05T02:16:26.011Z,3.63
2024-01-05T02:18:54.863Z,3.87
2024-01-05T02:21:25.966Z,3.90
2024-01-05T02:23:55.819Z,3.77
2024-01-05T02:26:24.856Z,4.00
2024-01-05T02:28:53.251Z,3.97
2024-01-05T02:31:21.592Z,3.50
2024-01-05T02:33:50.178Z,3.67
2024-01-05T02:36:19.748Z,4.00
2024-01-05T02:38:48.328Z,3.70
2024-01-05T02:41:18.104Z,3.27
2024-01-05T02:43:46.612Z,3.10
2024-01-05T02:46:14.982Z,3.23
2024-01-05T02:48:43.386Z,3.60
2024-01-05T02:51:14.994Z,3.47
2024-01-05T02:53:44.273Z,3.30
2024-01-05T02:56:22.707Z,3.60
2024-01-05T02:58:51.219Z,3.57
2024-01-05T03:01:19.779Z,3.10
2024-01-05T03:03:51.503Z,3.60
2024-01-05T03:06:21.668Z,3.73
2024-01-05T03:08:50.132Z,3.47
2024-01-05T03:11:18.558Z,3.40
2024-01-05T03:13:48.345Z,3.43
2024-01-05T03:16:16.839Z,3.23
2024-01-05T03:18:45.359Z,3.30
2024-01-05T03:21:13.894Z,3.20
2024-01-05T03:23:42.357Z,3.27
2024-01-05T03:26:11.427Z,3.87
2024-01-05T03:28:40.661Z,2.90
2024-01-05T03:31:15.066Z,3.50
2024-01-05T03:33:45.183Z,3.00
2024-01-05T03:36:14.216Z,2.30
2024-01-05T03:38:42.821Z,2.83
2024-01-05T03:41:11.812Z,2.57
2024-01-05T03:43:40.201Z,2.97
2024-01-05T03:46:13.964Z,2.73
2024-01-05T03:48:42.510Z,2.50
2024-01-05T03:51:11.050Z,2.47
2024-01-05T03:53:39.505Z,2.60
2024-01-05T03:56:09.631Z,2.47
2024-01-05T03:58:38.225Z,2.60
2024-01-05T04:01:06.790Z,2.43
2024-01-05T04:03:36.960Z,2.63
2024-01-05T04:06:06.160Z,2.40
2024-01-05T04:08:34.814Z,2.40
2024-01-05T04:11:03.244Z,2.30
2024-01-05T04:13:31.588Z,2.53
2024-01-05T04:15:59.926Z,2.30
2024-01-05T04:18:28.562Z,2.40
2024-01-05T04:20:58.528Z,2.73
2024-01-05T04:23:26.957Z,2.40
2024-01-05T04:25:55.437Z,2.40
2024-01-05T04:28:23.846Z,3.23
2024-01-05T04:30:52.377Z,2.80
2024-01-05T04:33:21.160Z,2.47
2024-01-05T04:35:49.771Z,2.63
2024-01-05T04:38:19.607Z,2.60
2024-01-05T04:40:48.181Z,2.33
2024-01-05T04:43:17.468Z,2.47
2024-01-05T04:45:46.095Z,2.33
2024-01-05T04:48:15.076Z,2.70
2024-01-05T04:50:43.589Z,2.20
2024-01-05T04:53:12.054Z,2.70
2024-01-05T04:55:41.766Z,2.40
2024-01-05T04:58:10.201Z,2.67
2024-01-05T05:00:38.734Z,2.67
2024-01-05T05:03:07.585Z,2.80
2024-01-05T05:05:36.018Z,2.30
2024-01-05T05:08:04.870Z,2.40
2024-01-05T05:10:33.344Z,2.57
2024-01-05T05:13:03.165Z,2.50
2024-01-05T05:15:31.678Z,2.50
2024-01-05T05:18:00.278Z,2.40
2024-01-05T05:20:28.994Z,2.50
2024-01-05T05:22:57.707Z,2.90
2024-01-05T05:25:26.815Z,2.27
2024-01-05T05:27:55.406Z,2.47
2024-01-05T05:30:25.575Z,2.43
2024-01-05T05:32:54.280Z,2.50
2024-01-05T05:35:22.905Z,2.20
2024-01-05T05:37:51.350Z,2.50
2024-01-05T05:40:19.763Z,2.37
2024-01-05T05:42:48.088Z,2.20
2024-01-05T05:45:16.579Z,2.80
2024-01-05T05:47:46.692Z,2.50
2024-01-05T05:50:15.410Z,2.40
2024-01-05T05:52:44.734Z,2.43
2024-01-05T05:55:14.032Z,2.53
2024-01-05T05:57:42.888Z,2.50
2024-01-05T06:00:12.800Z,3.20
2024-01-05T06:02:41.198Z,3.90
2024-01-05T06:05:11.754Z,2.67
2024-01-05T06:07:40.111Z,2.50
2024-01-05T06:10:10.014Z,2.50
2024-01-05T06:12:38.531Z,2.33
2024-01-05T06:15:08.512Z,2.63
2024-01-05T06:17:36.870Z,2.50
2024-01-05T06:20:06.031Z,2.50
2024-01-05T06:22:35.882Z,2.40
2024-01-05T06:25:04.369Z,2.50
2024-01-05T06:27:38.550Z,2.27
2024-01-05T06:30:10.141Z,2.40
2024-01-05T06:32:39.331Z,2.20
2024-01-05T06:35:08.637Z,2.80
2024-01-05T06:37:38.515Z,2.77
2024-01-05T06:40:08.245Z,2.70
2024-01-05T06:42:36.823Z,2.70
2024-01-05T06:45:05.905Z,2.83
2024-01-05T06:47:34.457Z,2.70
2024-01-05T06:50:05.490Z,3.10
2024-01-05T06:52:34.151Z,2.97
2024-01-05T06:55:04.598Z,3.00
2024-01-05T06:57:33.339Z,2.80
2024-01-05T07:00:01.775Z,3.23
2024-01-05T07:02:30.825Z,3.73
2024-01-05T07:04:59.550Z,2.80
2024-01-05T07:07:28.001Z,3.30
2024-01-05T07:09:56.565Z,3.00
2024-01-05T07:12:26.610Z,3.00
2024-01-05T07:14:55.126Z,2.73
2024-01-05T07:17:23.911Z,2.77
2024-01-05T07:19:52.555Z,3.40
2024-01-05T07:22:20.947Z,3.20
2024-01-05T07:24:50.637Z,2.87
2024-01-05T07:27:19.225Z,2.80
2024-01-05T07:29:49.185Z,2.80
2024-01-05T07:32:17.540Z,2.67
2024-01-05T07:34:46.453Z,3.50
2024-01-05T07:37:15.241Z,3.23
2024-01-05T07:39:43.611Z,3.60
2024-01-05T07:42:12.079Z,3.50
2024-01-05T07:44:40.930Z,3.40
2024-01-05T07:47:18.603Z,2.83
2024-01-05T07:49:47.198Z,2.87
2024-01-05T07:52:15.659Z,2.60
2024-01-05T07:54:44.327Z,2.70
2024-01-05T07:57:12.823Z,2.60
2024-01-05T07:59:41.516Z,3.70
2024-01-05T08:02:12.554Z,4.50
2024-01-05T08:04:42.524Z,3.90
2024-01-05T08:07:10.854Z,4.13
2024-01-05T08:09:39.323Z,3.47
2024-01-05T08:12:07.945Z,3.53
2024-01-05T08:14:36.380Z,2.87
2024-01-05T08:17:05.103Z,3.30
2024-01-05T08:19:35.146Z,4.10
2024-01-05T08:22:03.751Z,3.60
2024-01-05T08:24:32.609Z,3.83
2024-01-05T08:27:02.451Z,3.97
2024-01-05T08:29:30.822Z,4.33
2024-01-05T08:32:00.955Z,4.30
2024-01-05T08:34:29.707Z,4.00
2024-01-05T08:37:00.006Z,3.20
2024-01-05T08:39:28.688Z,3.37
2024-01-05T08:41:57.159Z,4.50
2024-01-05T08:44:25.530Z,3.47
2024-01-05T08:46:54.824Z,3.37
2024-01-05T08:49:23.206Z,3.20
2024-01-05T08:51:51.512Z,3.57
2024-01-05T08:54:21.950Z,3.70
2024-01-05T08:56:50.496Z,3.43
2024-01-05T08:59:18.927Z,3.27
2024-01-05T09:01:47.596Z,3.23
2024-01-05T09:04:16.473Z,3.90
2024-01-05T09:06:44.921Z,3.97
2024-01-05T09:09:13.334Z,4.17
2024-01-05T09:11:43.222Z,3.23
2024-01-05T09:14:11.794Z,7.37
2024-01-05T09:16:40.203Z,5.37
2024-01-05T09:19:10.282Z,3.70
2024-01-05T09:21:38.909Z,3.80
2024-01-05T09:24:08.402Z,3.13
2024-01-05T09:26:37.174Z,3.53
2024-01-05T09:29:07.340Z,3.10
2024-01-05T09:31:35.713Z,2.87
2024-01-05T09:34:04.529Z,3.23
2024-01-05T09:36:33.132Z,2.80
2024-01-05T09:39:01.533Z,2.90
2024-01-05T09:41:30.036Z,3.03
2024-01-05T09:43:59.434Z,3.90
2024-01-05T09:46:30.248Z,5.23
2024-01-05T09:49:00.606Z,3.20
2024-01-05T09:51:32.159Z,3.13
2024-01-05T09:54:01.186Z,2.50
2024-01-05T09:56:29.899Z,2.67
2024-01-05T09:58:58.871Z,3.00
2024-01-05T10:01:31.567Z,2.70
2024-01-05T10:04:02.979Z,2.60
2024-01-05T10:06:32.253Z,2.40
2024-01-05T10:09:01.571Z,2.47
2024-01-05T10:11:35.187Z,2.57
2024-01-05T10:14:07.834Z,2.60
2024-01-05T10:16:39.878Z,2.10
2024-01-05T10:19:14.022Z,2.87
2024-01-05T10:21:43.092Z,2.50
2024-01-05T10:24:18.946Z,4.03
2024-01-05T10:26:48.655Z,4.60
2024-01-05T10:29:17.996Z,3.13
2024-01-05T10:31:47.769Z,2.70
2024-01-05T10:34:16.454Z,2.50
2024-01-05T10:36:44.983Z,3.57
2024-01-05T10:39:15.609Z,2.37
2024-01-05T10:41:47.557Z,2.70
2024-01-05T10:44:18.106Z,2.70
2024-01-05T10:46:49.044Z,2.30
2024-01-05T10:49:17.876Z,5.20
2024-01-05T10:51:46.317Z,3.60
2024-01-05T10:54:15.552Z,2.87
2024-01-05T10:56:46.146Z,2.60
2024-01-05T10:59:14.838Z,4.00
2024-01-05T11:01:43.315Z,2.43
2024-01-05T11:04:14.083Z,2.80
2024-01-05T11:06:42.599Z,2.87
2024-01-05T11:09:23.088Z,2.33
2024-01-05T11:12:02.077Z,2.10
2024-01-05T11:14:56.154Z,1.80
2024-01-05T11:17:45.209Z,2.10
2024-01-05T11:20:40.899Z,2.17
2024-01-05T11:23:11.628Z,1.90
2024-01-05T11:25:40.469Z,1.90
2024-01-05T11:28:09.937Z,2.10
2024-01-05T11:30:43.066Z,2.77
2024-01-05T11:33:39.052Z,3.33
2024-01-05T11:36:09.703Z,2.83
2024-01-05T11:38:45.113Z,2.53
2024-01-05T11:41:20.269Z,3.40
2024-01-05T11:43:49.110Z,2.47
2024-01-05T11:46:20.599Z,2.40
2024-01-05T11:48:49.191Z,2.43
2024-01-05T11:51:20.230Z,2.57
2024-01-05T11:53:51.709Z,2.20
2024-01-05T11:56:22.832Z,2.37
2024-01-05T11:58:51.497Z,2.30
2024-01-05T12:01:21.455Z,2.70
2024-01-05T12:03:54.643Z,2.90
2024-01-05T12:06:25.446Z,3.20
2024-01-05T12:08:53.904Z,3.07
2024-01-05T12:11:22.981Z,2.67
2024-01-05T12:13:52.534Z,2.80
2024-01-05T12:16:25.600Z,2.60
2024-01-05T12:18:54.508Z,2.50
2024-01-05T12:21:24.576Z,2.20
2024-01-05T12:23:55.841Z,2.50
2024-01-05T12:26:25.691Z,1.93
2024-01-05T12:28:54.570Z,2.20
2024-01-05T12:31:24.003Z,3.10
2024-01-05T12:33:53.243Z,2.40
2024-01-05T12:36:30.600Z,1.90
2024-01-05T12:39:12.043Z,1.80
2024-01-05T12:41:44.275Z,1.80
2024-01-05T12:44:12.869Z,1.93
2024-01-05T12:46:47.205Z,2.33
2024-01-05T12:49:26.908Z,2.27
2024-01-05T12:51:58.027Z,2.70
2024-01-05T12:54:27.219Z,2.33
2024-01-05T12:56:56.371Z,2.30
2024-01-05T12:59:25.815Z,2.90
2024-01-05T13:02:01.399Z,3.13
2024-01-05T13:04:36.061Z,2.93
2024-01-05T13:07:12.370Z,2.83
2024-01-05T13:09:41.214Z,2.90
2024-01-05T13:12:10.282Z,2.70
2024-01-05T13:14:38.658Z,4.80
2024-01-05T13:17:07.771Z,3.20
2024-01-05T13:19:37.754Z,3.13
2024-01-05T13:22:11.079Z,3.63
2024-01-05T13:24:45.640Z,3.03
2024-01-05T13:27:15.391Z,3.03
2024-01-05T13:29:45.666Z,3.90
2024-01-05T13:32:14.375Z,3.00
2024-01-05T13:34:43.004Z,3.23
2024-01-05T13:37:11.529Z,4.13
2024-01-05T13:39:43.092Z,4.80
2024-01-05T13:42:12.797Z,6.13
2024-01-05T13:44:41.111Z,4.93
2024-01-05T13:47:09.689Z,5.43
2024-01-05T13:49:38.223Z,5.63
2024-01-05T13:52:07.284Z,5.80
2024-01-05T13:54:36.530Z,5.27
2024-01-05T13:57:06.848Z,6.10
2024-01-05T13:59:35.806Z,4.47
2024-01-05T14:02:05.043Z,4.93
2024-01-05T14:04:33.619Z,3.57
2024-01-05T14:07:02.714Z,3.40
2024-01-05T14:09:31.470Z,3.20
2024-01-05T14:12:00.450Z,5.73
2024-01-05T14:14:30.187Z,5.27
2024-01-05T14:16:58.909Z,7.30
2024-01-05T14:19:27.587Z,8.03
2024-01-05T14:21:56.060Z,11.57
2024-01-05T14:24:25.567Z,10.43
2024-01-05T14:26:54.100Z,9.00
2024-01-05T14:29:25.967Z,7.53
2024-01-05T14:32:01.025Z,5.70
2024-01-05T14:34:29.618Z,4.60
2024-01-05T14:36:58.317Z,9.40
2024-01-05T14:39:29.439Z,10.40
2024-01-05T14:41:58.261Z,8.17
2024-01-05T14:44:27.276Z,4.50
2024-01-05T14:46:57.631Z,4.90
2024-01-05T14:49:26.186Z,6.90
2024-01-05T14:51:56.976Z,6.60
2024-01-05T14:54:25.574Z,5.53
2024-01-05T14:56:54.125Z,6.03
2024-01-05T14:59:22.570Z,5.60
2024-01-05T15:01:51.354Z,5.00
2024-01-05T15:04:21.379Z,5.27
2024-01-05T15:06:50.179Z,5.10
2024-01-05T15:09:18.868Z,6.67
2024-01-05T15:11:47.257Z,6.47
2024-01-05T15:14:15.618Z,7.50
2024-01-05T15:16:43.996Z,8.80
2024-01-05T15:19:13.893Z,8.97
2024-01-05T15:21:46.595Z,7.70
2024-01-05T15:24:15.313Z,7.17
2024-01-05T15:26:46.745Z,5.90
2024-01-05T15:29:15.441Z,5.10
2024-01-05T15:31:44.060Z,5.53
2024-01-05T15:34:12.552Z,5.47
2024-01-05T15:36:41.314Z,6.10
2024-01-05T15:39:11.499Z,8.07
2024-01-05T15:41:40.154Z,12.13
2024-01-05T15:44:08.568Z,24.80
2024-01-05T15:46:36.993Z,19.10
2024-01-05T15:49:05.557Z,13.23
2024-01-05T15:51:36.848Z,15.43
2024-01-05T15:54:06.517Z,11.27
2024-01-05T15:56:36.956Z,10.07
2024-01-05T15:59:05.421Z,12.13
2024-01-05T16:01:33.810Z,10.00
2024-01-05T16:04:02.838Z,25.13
2024-01-05T16:06:31.473Z,10.70
2024-01-05T16:09:00.024Z,7.37
2024-01-05T16:11:31.764Z,5.80
2024-01-05T16:14:04.009Z,5.30
2024-01-05T16:16:32.452Z,4.63
2024-01-05T16:19:01.954Z,5.63
2024-01-05T16:21:31.818Z,7.00
2024-01-05T16:24:02.951Z,9.13
2024-01-05T16:26:31.729Z,10.53
2024-01-05T16:29:01.523Z,13.90
2024-01-05T16:31:29.988Z,10.63
2024-01-05T16:33:58.471Z,12.70
2024-01-05T16:36:26.975Z,11.87
2024-01-05T16:38:55.635Z,9.93
2024-01-05T16:41:25.961Z,7.93
2024-01-05T16:43:56.340Z,7.77
2024-01-05T16:46:26.345Z,6.30
2024-01-05T16:48:55.410Z,5.33
2024-01-05T16:51:26.199Z,5.30
2024-01-05T16:53:55.959Z,5.43
2024-01-05T16:56:28.945Z,6.10
2024-01-05T16:59:06.563Z,5.70
2024-01-05T17:01:36.520Z,5.77
2024-01-05T17:04:10.345Z,5.90
2024-01-05T17:06:40.458Z,7.93
2024-01-05T17:09:08.925Z,9.87
2024-01-05T17:11:37.540Z,14.13
2024-01-05T17:14:06.220Z,16.60
2024-01-05T17:16:35.886Z,16.43
2024-01-05T17:19:04.420Z,21.23
2024-01-05T17:21:32.964Z,16.20
2024-01-05T17:24:05.975Z,10.27
2024-01-05T17:26:40.301Z,14.93
2024-01-05T17:29:09.244Z,13.50
2024-01-05T17:31:39.100Z,11.00
2024-01-05T17:34:07.941Z,9.23
2024-01-05T17:36:41.042Z,7.40
2024-01-05T17:39:09.937Z,6.37
2024-01-05T17:41:40.538Z,6.33
2024-01-05T17:44:09.268Z,6.57
2024-01-05T17:46:40.966Z,6.13
2024-01-05T17:49:11.272Z,7.17
2024-01-05T17:51:40.761Z,6.03
2024-01-05T17:54:09.473Z,5.80
2024-01-05T17:56:38.373Z,5.97
2024-01-05T17:59:09.883Z,6.00
2024-01-05T18:01:45.694Z,6.63
2024-01-05T18:04:15.767Z,6.53
2024-01-05T18:06:45.181Z,6.97
2024-01-05T18:09:14.654Z,6.83
2024-01-05T18:11:44.470Z,7.20
2024-01-05T18:14:14.330Z,7.70
2024-01-05T18:16:44.318Z,8.30
2024-01-05T18:19:12.840Z,9.00
2024-01-05T18:21:45.714Z,8.63
2024-01-05T18:24:14.415Z,9.23
2024-01-05T18:26:42.918Z,8.17
2024-01-05T18:29:21.715Z,7.87
2024-01-05T18:31:59.721Z,6.93
2024-01-05T18:34:29.080Z,6.90
2024-01-05T18:36:56.458Z,7.17
2024-01-05T18:39:24.917Z,7.67
2024-01-05T18:41:53.267Z,7.30
2024-01-05T18:44:21.568Z,6.87
2024-01-05T18:46:52.989Z,6.70
2024-01-05T18:49:23.440Z,6.40
2024-01-05T18:51:53.524Z,6.70
2024-01-05T18:54:22.435Z,6.83
2024-01-05T18:56:51.245Z,5.47
2024-01-05T18:59:20.023Z,5.17
2024-01-05T19:01:49.192Z,4.73
2024-01-05T19:04:17.804Z,5.07
2024-01-05T19:06:48.046Z,4.70
2024-01-05T19:09:18.337Z,4.57
2024-01-05T19:11:46.714Z,5.03
2024-01-05T19:14:15.095Z,4.80
2024-01-05T19:16:44.094Z,5.30
2024-01-05T19:19:15.668Z,6.47
2024-01-05T19:21:55.476Z,5.10
2024-01-05T19:24:26.453Z,4.47
2024-01-05T19:26:55.273Z,5.63
2024-01-05T19:29:24.098Z,6.20
2024-01-05T19:31:52.423Z,5.23
2024-01-05T19:34:21.011Z,5.40
2024-01-05T19:36:53.876Z,4.00
2024-01-05T19:39:22.442Z,5.30
2024-01-05T19:41:51.702Z,4.70
2024-01-05T19:44:21.275Z,5.77
2024-01-05T19:46:50.409Z,6.70
2024-01-05T19:49:19.070Z,5.90
2024-01-05T19:51:49.426Z,7.10
2024-01-05T19:54:20.598Z,6.57
2024-01-05T19:56:49.777Z,5.47
2024-01-05T19:59:21.192Z,5.70
2024-01-05T20:01:49.938Z,6.33
2024-01-05T20:04:19.210Z,5.43
2024-01-05T20:06:49.261Z,5.50
2024-01-05T20:09:22.066Z,6.63
2024-01-05T20:11:51.651Z,5.50
2024-01-05T20:14:20.676Z,5.63
2024-01-05T20:16:49.256Z,5.50
2024-01-05T20:19:18.256Z,5.17
2024-01-05T20:21:49.086Z,6.17
2024-01-05T20:24:18.543Z,6.37
2024-01-05T20:26:51.967Z,5.63
2024-01-05T20:29:20.506Z,7.40
2024-01-05T20:31:51.632Z,7.40
2024-01-05T20:34:20.258Z,7.60
2024-01-05T20:36:51.588Z,7.43
2024-01-05T20:39:22.117Z,7.50
2024-01-05T20:41:53.183Z,6.70
2024-01-05T20:44:23.302Z,6.83
2024-01-05T20:46:52.143Z,6.47
2024-01-05T20:49:20.819Z,5.90
2024-01-05T20:51:49.494Z,5.73
2024-01-05T20:54:19.074Z,5.90
2024-01-05T20:56:47.791Z,5.57
2024-01-05T20:59:17.793Z,6.23
2024-01-05T21:01:46.514Z,5.67
2024-01-05T21:04:16.522Z,6.80
2024-01-05T21:07:09.285Z,5.57
2024-01-05T21:09:40.144Z,4.70
2024-01-05T21:12:09.133Z,5.37
2024-01-05T21:14:41.630Z,5.30
2024-01-05T21:17:10.186Z,5.17
2024-01-05T21:19:41.681Z,4.60
2024-01-05T21:22:10.900Z,4.50
2024-01-05T21:24:41.464Z,3.97
2024-01-05T21:27:11.002Z,4.60
2024-01-05T21:29:45.287Z,4.47
2024-01-05T21:32:14.062Z,4.40
2024-01-05T21:34:43.594Z,4.47
2024-01-05T21:37:13.894Z,4.40
2024-01-05T21:39:42.664Z,4.97
2024-01-05T21:42:12.064Z,4.40
2024-01-05T21:44:40.718Z,4.67
2024-01-05T21:47:11.435Z,4.97
2024-01-05T21:49:40.627Z,5.00
2024-01-05T21:52:11.810Z,5.23
2024-01-05T21:54:44.413Z,5.27
2024-01-05T21:57:12.807Z,4.73
2024-01-05T21:59:41.360Z,5.63
2024-01-05T22:02:11.526Z,5.03
2024-01-05T22:04:39.889Z,5.27
2024-01-05T22:07:08.324Z,5.43
2024-01-05T22:09:36.792Z,5.93
2024-01-05T22:12:06.849Z,5.40
2024-01-05T22:14:35.787Z,4.40
2024-01-05T22:17:04.257Z,5.20
2024-01-05T22:19:34.300Z,5.40
2024-01-05T22:22:02.657Z,5.60
2024-01-05T22:24:31.433Z,6.33
2024-01-05T22:27:06.476Z,6.20
2024-01-05T22:29:36.273Z,5.90
2024-01-05T22:32:04.944Z,5.70
2024-01-05T22:34:36.086Z,5.67
2024-01-05T22:37:07.209Z,5.57
2024-01-05T22:39:37.157Z,6.13
2024-01-05T22:42:06.512Z,6.17
2024-01-05T22:44:35.085Z,5.90
2024-01-05T22:47:06.074Z,6.30
2024-01-05T22:49:39.751Z,7.00
2024-01-05T22:52:09.207Z,6.70
2024-01-05T22:54:38.060Z,7.43
2024-01-05T22:57:07.830Z,8.33
2024-01-05T22:59:36.505Z,7.00
2024-01-05T23:02:05.452Z,8.47
2024-01-05T23:04:35.756Z,8.53
2024-01-05T23:07:05.094Z,9.30
2024-01-05T23:09:36.113Z,9.70
2024-01-05T23:12:04.979Z,8.87
2024-01-05T23:14:33.550Z,8.47
2024-01-05T23:17:01.974Z,10.03
2024-01-05T23:19:30.450Z,9.33
2024-01-05T23:22:00.273Z,8.77
2024-01-05T23:24:29.074Z,9.57
2024-01-05T23:26:58.010Z,7.83
2024-01-05T23:29:26.554Z,8.50
2024-01-05T23:31:55.186Z,8.93
2024-01-05T23:34:26.675Z,7.67
2024-01-05T23:36:55.594Z,7.53
2024-01-05T23:39:25.632Z,11.80
2024-01-05T23:41:54.135Z,11.97
2024-01-05T23:44:22.554Z,8.80
2024-01-05T23:46:50.952Z,8.43
2024-01-05T23:49:20.238Z,7.83
2024-01-05T23:51:49.123Z,7.73
2024-01-05T23:54:17.774Z,7.80
2024-01-05T23:56:47.669Z,8.67
2024-01-05T23:59:16.216Z,7.33
